sensor_id;sensor_type;location;lat;lon;timestamp;pressure;altitude;pressure_sealevel;temperature;humidity
13705;BME280;6924;52.122;9.952;2022-11-04T00:01:23;99029.81;;;11.68;83.15
13705;BME280;6924;52.122;9.952;2022-11-04T00:03:50;99028.28;;;11.71;82.87
13705;BME280;6924;52.122;9.952;2022-11-04T00:06:17;99036.06;;;11.74;83.04
13705;BME280;6924;52.122;9.952;2022-11-04T00:08:48;99032.97;;;11.79;82.58
13705;BME280;6924;52.122;9.952;2022-11-04T00:11:15;99039.34;;;11.76;82.36
13705;BME280;6924;52.122;9.952;2022-11-04T00:14:00;99031.13;;;11.71;82.58
13705;BME280;6924;52.122;9.952;2022-11-04T00:16:26;99030.19;;;11.67;83.26
13705;BME280;6924;52.122;9.952;2022-11-04T00:19:10;99041.59;;;11.70;83.26
13705;BME280;6924;52.122;9.952;2022-11-04T00:21:37;99031.47;;;11.69;83.60
13705;BME280;6924;52.122;9.952;2022-11-04T00:24:22;99033.50;;;11.69;83.23
13705;BME280;6924;52.122;9.952;2022-11-04T00:27:09;99029.19;;;11.75;83.40
13705;BME280;6924;52.122;9.952;2022-11-04T00:29:53;99029.00;;;11.68;83.75
13705;BME280;6924;52.122;9.952;2022-11-04T00:32:20;99028.84;;;11.76;84.06
13705;BME280;6924;52.122;9.952;2022-11-04T00:35:15;99030.34;;;11.86;83.23
13705;BME280;6924;52.122;9.952;2022-11-04T00:37:43;99031.31;;;11.78;84.04
13705;BME280;6924;52.122;9.952;2022-11-04T00:40:12;99032.88;;;11.75;84.35
13705;BME280;6924;52.122;9.952;2022-11-04T00:42:40;99026.28;;;11.71;84.80
13705;BME280;6924;52.122;9.952;2022-11-04T00:45:09;99021.28;;;11.81;84.91
13705;BME280;6924;52.122;9.952;2022-11-04T00:47:35;99011.34;;;11.87;84.67
13705;BME280;6924;52.122;9.952;2022-11-04T00:50:02;99021.00;;;11.86;84.47
13705;BME280;6924;52.122;9.952;2022-11-04T00:52:28;99031.06;;;11.83;84.87
13705;BME280;6924;52.122;9.952;2022-11-04T00:54:55;99039.78;;;11.90;85.19
13705;BME280;6924;52.122;9.952;2022-11-04T00:57:23;99034.56;;;11.92;85.28
13705;BME280;6924;52.122;9.952;2022-11-04T00:59:49;99039.53;;;11.95;84.94
13705;BME280;6924;52.122;9.952;2022-11-04T01:02:16;99042.84;;;11.97;84.86
13705;BME280;6924;52.122;9.952;2022-11-04T01:04:42;99046.13;;;11.99;85.29
13705;BME280;6924;52.122;9.952;2022-11-04T01:07:09;99043.84;;;12.05;85.80
13705;BME280;6924;52.122;9.952;2022-11-04T01:09:35;99051.72;;;12.12;86.22
13705;BME280;6924;52.122;9.952;2022-11-04T01:12:02;99050.63;;;12.16;86.99
13705;BME280;6924;52.122;9.952;2022-11-04T01:14:30;99047.63;;;12.09;89.55
13705;BME280;6924;52.122;9.952;2022-11-04T01:16:57;99046.53;;;12.14;90.63
13705;BME280;6924;52.122;9.952;2022-11-04T01:19:23;99046.88;;;12.12;91.34
13705;BME280;6924;52.122;9.952;2022-11-04T01:21:50;99053.59;;;12.20;91.96
13705;BME280;6924;52.122;9.952;2022-11-04T01:24:17;99064.47;;;12.18;94.10
13705;BME280;6924;52.122;9.952;2022-11-04T01:26:44;99067.28;;;12.18;93.77
13705;BME280;6924;52.122;9.952;2022-11-04T01:29:11;99071.75;;;12.19;94.52
13705;BME280;6924;52.122;9.952;2022-11-04T01:31:38;99072.84;;;12.14;95.97
13705;BME280;6924;52.122;9.952;2022-11-04T01:34:05;99071.41;;;11.92;98.59
13705;BME280;6924;52.122;9.952;2022-11-04T01:36:32;99083.22;;;11.94;99.84
13705;BME280;6924;52.122;9.952;2022-11-04T01:38:59;99088.53;;;11.96;99.60
13705;BME280;6924;52.122;9.952;2022-11-04T01:41:29;99108.47;;;11.99;100.00
13705;BME280;6924;52.122;9.952;2022-11-04T01:43:57;99113.22;;;11.83;100.00
13705;BME280;6924;52.122;9.952;2022-11-04T01:46:31;99134.94;;;11.79;100.00
13705;BME280;6924;52.122;9.952;2022-11-04T01:49:05;99130.13;;;11.79;100.00
13705;BME280;6924;52.122;9.952;2022-11-04T01:51:36;99129.31;;;11.67;100.00
13705;BME280;6924;52.122;9.952;2022-11-04T01:54:07;99131.69;;;11.65;100.00
13705;BME280;6924;52.122;9.952;2022-11-04T01:56:34;99127.41;;;11.71;100.00
13705;BME280;6924;52.122;9.952;2022-11-04T01:59:04;99129.19;;;11.75;100.00
13705;BME280;6924;52.122;9.952;2022-11-04T02:01:33;99118.78;;;11.79;100.00
13705;BME280;6924;52.122;9.952;2022-11-04T02:04:02;99121.81;;;11.87;100.00
13705;BME280;6924;52.122;9.952;2022-11-04T02:06:43;99124.09;;;11.93;100.00
13705;BME280;6924;52.122;9.952;2022-11-04T02:09:10;99116.50;;;11.97;100.00
13705;BME280;6924;52.122;9.952;2022-11-04T02:11:36;99117.44;;;12.02;100.00
13705;BME280;6924;52.122;9.952;2022-11-04T02:14:20;99118.72;;;12.04;100.00
13705;BME280;6924;52.122;9.952;2022-11-04T02:16:48;99113.53;;;12.06;100.00
13705;BME280;6924;52.122;9.952;2022-11-04T02:19:34;99108.75;;;12.10;100.00
13705;BME280;6924;52.122;9.952;2022-11-04T02:22:23;99104.75;;;12.11;100.00
13705;BME280;6924;52.122;9.952;2022-11-04T02:25:20;99110.44;;;12.11;100.00
13705;BME280;6924;52.122;9.952;2022-11-04T02:28:18;99103.94;;;12.11;100.00
13705;BME280;6924;52.122;9.952;2022-11-04T02:31:02;99096.75;;;12.01;100.00
13705;BME280;6924;52.122;9.952;2022-11-04T02:33:36;99096.75;;;12.01;100.00
13705;BME280;6924;52.122;9.952;2022-11-04T02:36:10;99088.72;;;12.03;100.00
13705;BME280;6924;52.122;9.952;2022-11-04T02:38:49;99089.63;;;11.91;100.00
13705;BME280;6924;52.122;9.952;2022-11-04T02:41:26;99089.41;;;11.72;100.00
13705;BME280;6924;52.122;9.952;2022-11-04T02:44:02;99094.34;;;11.75;100.00
13705;BME280;6924;52.122;9.952;2022-11-04T02:46:34;99080.22;;;11.63;100.00
13705;BME280;6924;52.122;9.952;2022-11-04T02:49:07;99084.00;;;11.67;100.00
13705;BME280;6924;52.122;9.952;2022-11-04T02:51:39;99089.19;;;11.65;100.00
13705;BME280;6924;52.122;9.952;2022-11-04T02:54:10;99093.31;;;11.67;100.00
13705;BME280;6924;52.122;9.952;2022-11-04T02:56:42;99093.66;;;11.66;100.00
13705;BME280;6924;52.122;9.952;2022-11-04T02:59:14;99109.72;;;11.62;100.00
13705;BME280;6924;52.122;9.952;2022-11-04T03:01:45;99116.25;;;11.50;100.00
13705;BME280;6924;52.122;9.952;2022-11-04T03:04:15;99121.19;;;11.53;100.00
13705;BME280;6924;52.122;9.952;2022-11-04T03:06:46;99117.06;;;11.50;100.00
13705;BME280;6924;52.122;9.952;2022-11-04T03:09:14;99126.16;;;11.56;100.00
13705;BME280;6924;52.122;9.952;2022-11-04T03:11:44;99133.59;;;11.36;100.00
13705;BME280;6924;52.122;9.952;2022-11-04T03:14:18;99136.66;;;11.31;100.00
13705;BME280;6924;52.122;9.952;2022-11-04T03:16:49;99137.03;;;11.17;100.00
13705;BME280;6924;52.122;9.952;2022-11-04T03:19:23;99147.28;;;11.22;100.00
13705;BME280;6924;52.122;9.952;2022-11-04T03:21:54;99172.28;;;11.20;100.00
13705;BME280;6924;52.122;9.952;2022-11-04T03:24:23;99179.47;;;11.17;100.00
13705;BME280;6924;52.122;9.952;2022-11-04T03:26:56;99189.22;;;10.83;99.17
13705;BME280;6924;52.122;9.952;2022-11-04T03:29:28;99200.75;;;10.78;100.00
13705;BME280;6924;52.122;9.952;2022-11-04T03:32:05;99211.94;;;10.74;100.00
13705;BME280;6924;52.122;9.952;2022-11-04T03:34:33;99220.63;;;10.69;100.00
13705;BME280;6924;52.122;9.952;2022-11-04T03:37:00;99233.47;;;10.66;100.00
13705;BME280;6924;52.122;9.952;2022-11-04T03:39:27;99223.69;;;10.64;100.00
13705;BME280;6924;52.122;9.952;2022-11-04T03:41:55;99229.34;;;10.64;99.51
13705;BME280;6924;52.122;9.952;2022-11-04T03:44:23;99218.38;;;10.62;99.57
13705;BME280;6924;52.122;9.952;2022-11-04T03:46:50;99216.41;;;10.75;99.11
13705;BME280;6924;52.122;9.952;2022-11-04T03:49:19;99238.34;;;10.78;98.89
13705;BME280;6924;52.122;9.952;2022-11-04T03:51:46;99231.38;;;10.75;97.73
13705;BME280;6924;52.122;9.952;2022-11-04T03:54:13;99224.56;;;10.77;97.50
13705;BME280;6924;52.122;9.952;2022-11-04T03:57:01;99215.59;;;10.74;97.36
13705;BME280;6924;52.122;9.952;2022-11-04T03:59:44;99225.44;;;10.56;98.40
13705;BME280;6924;52.122;9.952;2022-11-04T04:02:16;99232.88;;;10.61;97.15
13705;BME280;6924;52.122;9.952;2022-11-04T04:04:52;99244.19;;;10.61;96.17
13705;BME280;6924;52.122;9.952;2022-11-04T04:07:30;99249.06;;;10.72;97.00
13705;BME280;6924;52.122;9.952;2022-11-04T04:10:02;99244.84;;;10.79;96.83
13705;BME280;6924;52.122;9.952;2022-11-04T04:12:50;99248.31;;;10.63;96.94
13705;BME280;6924;52.122;9.952;2022-11-04T04:15:22;99260.31;;;10.60;95.93
13705;BME280;6924;52.122;9.952;2022-11-04T04:17:55;99257.69;;;10.55;95.74
13705;BME280;6924;52.122;9.952;2022-11-04T04:20:26;99253.41;;;10.49;95.95
13705;BME280;6924;52.122;9.952;2022-11-04T04:22:57;99246.81;;;10.45;95.80
13705;BME280;6924;52.122;9.952;2022-11-04T04:25:27;99250.75;;;10.31;94.95
13705;BME280;6924;52.122;9.952;2022-11-04T04:28:15;99258.41;;;10.31;95.05
13705;BME280;6924;52.122;9.952;2022-11-04T04:30:42;99266.06;;;10.30;95.44
13705;BME280;6924;52.122;9.952;2022-11-04T04:33:12;99258.94;;;10.24;95.22
13705;BME280;6924;52.122;9.952;2022-11-04T04:35:44;99264.44;;;10.21;95.71
13705;BME280;6924;52.122;9.952;2022-11-04T04:38:16;99262.91;;;10.32;95.56
13705;BME280;6924;52.122;9.952;2022-11-04T04:41:05;99273.66;;;10.39;95.26
13705;BME280;6924;52.122;9.952;2022-11-04T04:43:51;99279.09;;;10.44;95.17
13705;BME280;6924;52.122;9.952;2022-11-04T04:46:51;99276.56;;;10.21;95.16
13705;BME280;6924;52.122;9.952;2022-11-04T04:49:19;99276.81;;;10.07;93.87
13705;BME280;6924;52.122;9.952;2022-11-04T04:51:47;99280.84;;;10.06;95.23
13705;BME280;6924;52.122;9.952;2022-11-04T04:54:14;99287.78;;;9.88;95.29
13705;BME280;6924;52.122;9.952;2022-11-04T04:56:40;99299.94;;;9.80;92.89
13705;BME280;6924;52.122;9.952;2022-11-04T04:59:07;99285.13;;;9.83;94.72
13705;BME280;6924;52.122;9.952;2022-11-04T05:01:33;99291.41;;;9.88;95.83
13705;BME280;6924;52.122;9.952;2022-11-04T05:04:00;99307.81;;;9.95;95.44
13705;BME280;6924;52.122;9.952;2022-11-04T05:06:26;99304.50;;;9.93;95.69
13705;BME280;6924;52.122;9.952;2022-11-04T05:08:54;99314.09;;;10.01;94.78
13705;BME280;6924;52.122;9.952;2022-11-04T05:11:20;99317.63;;;9.98;94.61
13705;BME280;6924;52.122;9.952;2022-11-04T05:13:47;99325.22;;;10.06;94.85
13705;BME280;6924;52.122;9.952;2022-11-04T05:16:14;99324.84;;;10.07;93.97
13705;BME280;6924;52.122;9.952;2022-11-04T05:18:40;99318.75;;;10.05;93.91
13705;BME280;6924;52.122;9.952;2022-11-04T05:21:09;99325.97;;;10.15;93.13
13705;BME280;6924;52.122;9.952;2022-11-04T05:23:36;99330.41;;;10.25;93.30
13705;BME280;6924;52.122;9.952;2022-11-04T05:26:04;99337.56;;;10.22;92.29
13705;BME280;6924;52.122;9.952;2022-11-04T05:28:31;99349.84;;;10.26;92.17
13705;BME280;6924;52.122;9.952;2022-11-04T05:31:01;99344.69;;;10.28;91.73
13705;BME280;6924;52.122;9.952;2022-11-04T05:33:28;99340.31;;;10.10;91.31
13705;BME280;6924;52.122;9.952;2022-11-04T05:36:04;99316.81;;;10.18;91.50
13705;BME280;6924;52.122;9.952;2022-11-04T05:38:31;99328.41;;;10.25;91.10
13705;BME280;6924;52.122;9.952;2022-11-04T05:40:57;99351.84;;;10.26;91.83
13705;BME280;6924;52.122;9.952;2022-11-04T05:43:25;99355.06;;;10.16;91.51
13705;BME280;6924;52.122;9.952;2022-11-04T05:45:52;99372.84;;;10.16;91.33
13705;BME280;6924;52.122;9.952;2022-11-04T05:48:18;99371.53;;;10.13;91.56
13705;BME280;6924;52.122;9.952;2022-11-04T05:50:45;99376.50;;;10.17;91.90
13705;BME280;6924;52.122;9.952;2022-11-04T05:53:11;99380.00;;;10.13;92.00
13705;BME280;6924;52.122;9.952;2022-11-04T05:55:38;99381.19;;;10.12;91.70
13705;BME280;6924;52.122;9.952;2022-11-04T05:58:04;99367.88;;;10.13;91.55
13705;BME280;6924;52.122;9.952;2022-11-04T06:00:32;99385.47;;;10.19;91.54
13705;BME280;6924;52.122;9.952;2022-11-04T06:02:59;99394.06;;;10.22;91.01
13705;BME280;6924;52.122;9.952;2022-11-04T06:05:26;99412.50;;;10.28;91.02
13705;BME280;6924;52.122;9.952;2022-11-04T06:07:53;99412.00;;;10.35;91.15
13705;BME280;6924;52.122;9.952;2022-11-04T06:10:19;99411.31;;;10.38;91.40
13705;BME280;6924;52.122;9.952;2022-11-04T06:12:46;99416.94;;;10.38;91.31
13705;BME280;6924;52.122;9.952;2022-11-04T06:15:13;99417.13;;;10.42;91.35
13705;BME280;6924;52.122;9.952;2022-11-04T06:17:40;99417.31;;;10.37;91.83
13705;BME280;6924;52.122;9.952;2022-11-04T06:20:08;99423.09;;;10.40;91.96
13705;BME280;6924;52.122;9.952;2022-11-04T06:22:35;99426.78;;;10.41;90.59
13705;BME280;6924;52.122;9.952;2022-11-04T06:25:01;99431.41;;;10.45;90.22
13705;BME280;6924;52.122;9.952;2022-11-04T06:27:28;99434.06;;;10.42;90.31
13705;BME280;6924;52.122;9.952;2022-11-04T06:29:54;99436.69;;;10.47;89.88
13705;BME280;6924;52.122;9.952;2022-11-04T06:32:21;99444.41;;;10.38;89.93
13705;BME280;6924;52.122;9.952;2022-11-04T06:34:49;99458.19;;;10.39;89.44
13705;BME280;6924;52.122;9.952;2022-11-04T06:37:15;99460.69;;;10.41;89.19
13705;BME280;6924;52.122;9.952;2022-11-04T06:39:44;99459.50;;;10.42;89.02
13705;BME280;6924;52.122;9.952;2022-11-04T06:42:11;99455.88;;;10.41;87.78
13705;BME280;6924;52.122;9.952;2022-11-04T06:44:37;99442.41;;;10.38;87.86
13705;BME280;6924;52.122;9.952;2022-11-04T06:47:04;99453.38;;;10.40;87.72
13705;BME280;6924;52.122;9.952;2022-11-04T06:49:30;99459.50;;;10.42;87.68
13705;BME280;6924;52.122;9.952;2022-11-04T06:51:58;99467.31;;;10.45;88.02
13705;BME280;6924;52.122;9.952;2022-11-04T06:54:26;99455.88;;;10.41;87.96
13705;BME280;6924;52.122;9.952;2022-11-04T06:56:53;99457.91;;;10.32;87.83
13705;BME280;6924;52.122;9.952;2022-11-04T06:59:19;99467.22;;;10.24;86.86
13705;BME280;6924;52.122;9.952;2022-11-04T07:01:48;99454.25;;;10.23;87.28
13705;BME280;6924;52.122;9.952;2022-11-04T07:04:14;99449.81;;;10.13;86.56
13705;BME280;6924;52.122;9.952;2022-11-04T07:06:42;99455.13;;;10.14;86.97
13705;BME280;6924;52.122;9.952;2022-11-04T07:09:11;99450.63;;;10.13;86.61
13705;BME280;6924;52.122;9.952;2022-11-04T07:11:38;99445.00;;;10.13;87.55
13705;BME280;6924;52.122;9.952;2022-11-04T07:14:05;99450.09;;;10.20;87.23
13705;BME280;6924;52.122;9.952;2022-11-04T07:16:32;99457.56;;;10.25;86.94
13705;BME280;6924;52.122;9.952;2022-11-04T07:18:59;99453.09;;;10.32;87.11
13705;BME280;6924;52.122;9.952;2022-11-04T07:21:27;99460.53;;;10.37;86.96
13705;BME280;6924;52.122;9.952;2022-11-04T07:23:56;99465.38;;;10.37;87.00
13705;BME280;6924;52.122;9.952;2022-11-04T07:26:24;99456.69;;;10.42;86.82
13705;BME280;6924;52.122;9.952;2022-11-04T07:28:50;99464.97;;;10.47;88.28
13705;BME280;6924;52.122;9.952;2022-11-04T07:31:17;99474.31;;;10.47;87.95
13705;BME280;6924;52.122;9.952;2022-11-04T07:33:43;99470.63;;;10.47;86.91
13705;BME280;6924;52.122;9.952;2022-11-04T07:36:14;99471.09;;;10.49;87.21
13705;BME280;6924;52.122;9.952;2022-11-04T07:38:41;99479.59;;;10.49;87.14
13705;BME280;6924;52.122;9.952;2022-11-04T07:41:08;99482.91;;;10.51;86.99
13705;BME280;6924;52.122;9.952;2022-11-04T07:43:36;99488.06;;;10.49;87.22
13705;BME280;6924;52.122;9.952;2022-11-04T07:46:04;99489.25;;;10.48;87.31
13705;BME280;6924;52.122;9.952;2022-11-04T07:48:31;99487.25;;;10.48;86.84
13705;BME280;6924;52.122;9.952;2022-11-04T07:50:59;99489.75;;;10.50;86.01
13705;BME280;6924;52.122;9.952;2022-11-04T07:53:26;99497.56;;;10.44;85.44
13705;BME280;6924;52.122;9.952;2022-11-04T07:55:52;99495.41;;;10.50;85.60
13705;BME280;6924;52.122;9.952;2022-11-04T07:58:19;99496.38;;;10.54;84.93
13705;BME280;6924;52.122;9.952;2022-11-04T08:00:48;99491.34;;;10.60;85.39
13705;BME280;6924;52.122;9.952;2022-11-04T08:03:15;99493.19;;;10.55;85.02
13705;BME280;6924;52.122;9.952;2022-11-04T08:05:42;99493.34;;;10.59;85.34
13705;BME280;6924;52.122;9.952;2022-11-04T08:08:08;99489.50;;;10.64;85.96
13705;BME280;6924;52.122;9.952;2022-11-04T08:10:35;99498.47;;;10.66;85.27
13705;BME280;6924;52.122;9.952;2022-11-04T08:13:01;99504.75;;;10.71;85.00
13705;BME280;6924;52.122;9.952;2022-11-04T08:15:28;99499.72;;;10.77;85.62
13705;BME280;6924;52.122;9.952;2022-11-04T08:17:56;99505.53;;;10.81;85.74
13705;BME280;6924;52.122;9.952;2022-11-04T08:20:22;99517.84;;;10.85;86.15
13705;BME280;6924;52.122;9.952;2022-11-04T08:22:49;99515.72;;;10.73;85.79
13705;BME280;6924;52.122;9.952;2022-11-04T08:25:15;99511.75;;;10.74;85.86
13705;BME280;6924;52.122;9.952;2022-11-04T08:27:42;99508.75;;;10.70;86.57
13705;BME280;6924;52.122;9.952;2022-11-04T08:30:10;99519.09;;;10.66;85.90
13705;BME280;6924;52.122;9.952;2022-11-04T08:32:37;99512.22;;;10.76;85.11
13705;BME280;6924;52.122;9.952;2022-11-04T08:35:07;99511.63;;;10.62;83.67
13705;BME280;6924;52.122;9.952;2022-11-04T08:37:34;99507.56;;;10.71;84.07
13705;BME280;6924;52.122;9.952;2022-11-04T08:40:01;99504.06;;;10.74;83.82
13705;BME280;6924;52.122;9.952;2022-11-04T08:42:28;99505.72;;;10.75;83.85
13705;BME280;6924;52.122;9.952;2022-11-04T08:44:54;99513.03;;;10.77;84.82
13705;BME280;6924;52.122;9.952;2022-11-04T08:47:21;99527.81;;;10.82;84.26
13705;BME280;6924;52.122;9.952;2022-11-04T08:49:48;99541.63;;;10.84;84.30
13705;BME280;6924;52.122;9.952;2022-11-04T08:52:16;99552.97;;;10.75;81.92
13705;BME280;6924;52.122;9.952;2022-11-04T08:54:42;99557.56;;;10.88;83.10
13705;BME280;6924;52.122;9.952;2022-11-04T08:57:09;99557.72;;;10.92;84.14
13705;BME280;6924;52.122;9.952;2022-11-04T08:59:36;99556.03;;;10.91;82.76
13705;BME280;6924;52.122;9.952;2022-11-04T09:02:02;99551.09;;;10.88;81.18
13705;BME280;6924;52.122;9.952;2022-11-04T09:04:29;99552.72;;;10.89;81.31
13705;BME280;6924;52.122;9.952;2022-11-04T09:06:55;99550.25;;;10.87;80.49
13705;BME280;6924;52.122;9.952;2022-11-04T09:09:23;99545.22;;;10.93;80.90
13705;BME280;6924;52.122;9.952;2022-11-04T09:11:50;99550.34;;;11.00;80.47
13705;BME280;6924;52.122;9.952;2022-11-04T09:14:16;99545.44;;;10.88;79.67
13705;BME280;6924;52.122;9.952;2022-11-04T09:16:43;99547.06;;;10.89;80.50
13705;BME280;6924;52.122;9.952;2022-11-04T09:19:09;99543.03;;;10.99;80.59
13705;BME280;6924;52.122;9.952;2022-11-04T09:21:36;99541.31;;;11.06;80.77
13705;BME280;6924;52.122;9.952;2022-11-04T09:24:03;99531.66;;;11.07;79.50
13705;BME280;6924;52.122;9.952;2022-11-04T09:26:33;99534.13;;;11.09;80.49
13705;BME280;6924;52.122;9.952;2022-11-04T09:29:00;99529.91;;;11.15;80.81
13705;BME280;6924;52.122;9.952;2022-11-04T09:31:28;99536.56;;;11.19;79.93
13705;BME280;6924;52.122;9.952;2022-11-04T09:33:55;99529.38;;;11.22;79.33
13705;BME280;6924;52.122;9.952;2022-11-04T09:36:22;99527.59;;;11.17;80.17
13705;BME280;6924;52.122;9.952;2022-11-04T09:38:49;99532.09;;;11.18;79.93
13705;BME280;6924;52.122;9.952;2022-11-04T09:41:47;99529.81;;;11.11;78.32
13705;BME280;6924;52.122;9.952;2022-11-04T09:44:22;99530.06;;;11.19;78.67
13705;BME280;6924;52.122;9.952;2022-11-04T09:46:51;99521.84;;;11.26;79.83
13705;BME280;6924;52.122;9.952;2022-11-04T09:49:20;99516.81;;;11.31;80.34
13705;BME280;6924;52.122;9.952;2022-11-04T09:51:47;99503.91;;;11.43;79.85
13705;BME280;6924;52.122;9.952;2022-11-04T09:54:19;99507.81;;;11.50;79.79
13705;BME280;6924;52.122;9.952;2022-11-04T09:56:49;99510.63;;;11.38;77.07
13705;BME280;6924;52.122;9.952;2022-11-04T09:59:20;99501.06;;;11.43;78.31
13705;BME280;6924;52.122;9.952;2022-11-04T10:01:57;99502.22;;;11.42;77.59
13705;BME280;6924;52.122;9.952;2022-11-04T10:04:40;99507.16;;;11.53;79.13
13705;BME280;6924;52.122;9.952;2022-11-04T10:07:20;99515.84;;;11.48;75.21
13705;BME280;6924;52.122;9.952;2022-11-04T10:09:59;99520.69;;;11.27;77.46
13705;BME280;6924;52.122;9.952;2022-11-04T10:12:49;99518.19;;;11.25;78.14
13705;BME280;6924;52.122;9.952;2022-11-04T10:18:40;99536.50;;;11.28;76.60
13705;BME280;6924;52.122;9.952;2022-11-04T10:21:20;99549.94;;;11.31;77.38
13705;BME280;6924;52.122;9.952;2022-11-04T10:23:59;99573.50;;;11.44;78.22
13705;BME280;6924;52.122;9.952;2022-11-04T10:26:32;99581.50;;;11.42;76.74
13705;BME280;6924;52.122;9.952;2022-11-04T10:29:05;99583.78;;;11.48;78.02
13705;BME280;6924;52.122;9.952;2022-11-04T10:31:37;99584.34;;;11.63;77.63
13705;BME280;6924;52.122;9.952;2022-11-04T10:34:07;99585.38;;;11.79;79.05
13705;BME280;6924;52.122;9.952;2022-11-04T10:36:38;99591.47;;;11.69;77.57
13705;BME280;6924;52.122;9.952;2022-11-04T10:39:13;99589.72;;;11.76;77.84
13705;BME280;6924;52.122;9.952;2022-11-04T10:41:42;99591.41;;;11.77;76.34
13705;BME280;6924;52.122;9.952;2022-11-04T10:44:15;99589.63;;;11.73;76.36
13705;BME280;6924;52.122;9.952;2022-11-04T10:46:53;99584.69;;;11.82;77.15
13705;BME280;6924;52.122;9.952;2022-11-04T10:52:11;99587.19;;;11.63;75.07
13705;BME280;6924;52.122;9.952;2022-11-04T10:54:41;99581.44;;;11.71;76.31
13705;BME280;6924;52.122;9.952;2022-11-04T10:57:08;99579.72;;;11.79;75.65
13705;BME280;6924;52.122;9.952;2022-11-04T10:59:46;99574.13;;;11.91;75.92
13705;BME280;6924;52.122;9.952;2022-11-04T11:02:14;99578.34;;;12.06;76.20
13705;BME280;6924;52.122;9.952;2022-11-04T11:04:41;99573.59;;;12.10;75.66
13705;BME280;6924;52.122;9.952;2022-11-04T11:07:12;99572.56;;;12.15;75.22
13705;BME280;6924;52.122;9.952;2022-11-04T11:09:49;99568.53;;;12.16;75.23
13705;BME280;6924;52.122;9.952;2022-11-04T11:12:19;99560.78;;;12.25;74.72
13705;BME280;6924;52.122;9.952;2022-11-04T11:14:52;99558.41;;;12.27;75.75
13705;BME280;6924;52.122;9.952;2022-11-04T11:17:23;99562.78;;;12.25;75.18
13705;BME280;6924;52.122;9.952;2022-11-04T11:19:55;99558.59;;;12.10;72.90
13705;BME280;6924;52.122;9.952;2022-11-04T11:22:32;99563.31;;;12.06;73.83
13705;BME280;6924;52.122;9.952;2022-11-04T11:25:21;99569.16;;;12.22;75.47
13705;BME280;6924;52.122;9.952;2022-11-04T11:27:50;99573.88;;;12.30;75.05
13705;BME280;6924;52.122;9.952;2022-11-04T11:30:21;99581.44;;;12.26;71.68
13705;BME280;6924;52.122;9.952;2022-11-04T11:32:52;99573.06;;;12.17;71.26
13705;BME280;6924;52.122;9.952;2022-11-04T11:35:22;99574.25;;;12.28;73.90
13705;BME280;6924;52.122;9.952;2022-11-04T11:37:50;99578.66;;;12.05;70.57
13705;BME280;6924;52.122;9.952;2022-11-04T11:40:25;99586.75;;;12.15;73.41
13705;BME280;6924;52.122;9.952;2022-11-04T11:42:52;99583.25;;;12.30;73.03
13705;BME280;6924;52.122;9.952;2022-11-04T11:45:22;99587.00;;;12.34;70.90
13705;BME280;6924;52.122;9.952;2022-11-04T11:47:49;99577.69;;;12.34;72.35
13705;BME280;6924;52.122;9.952;2022-11-04T11:50:21;99586.81;;;12.52;72.17
13705;BME280;6924;52.122;9.952;2022-11-04T11:52:50;99583.41;;;12.46;71.17
13705;BME280;6924;52.122;9.952;2022-11-04T11:55:22;99571.00;;;12.51;71.11
13705;BME280;6924;52.122;9.952;2022-11-04T11:57:57;99571.22;;;12.46;69.83
13705;BME280;6924;52.122;9.952;2022-11-04T12:00:29;99568.84;;;12.48;70.43
13705;BME280;6924;52.122;9.952;2022-11-04T12:02:59;99567.16;;;12.22;68.61
13705;BME280;6924;52.122;9.952;2022-11-04T12:05:34;99561.25;;;12.15;70.06
13705;BME280;6924;52.122;9.952;2022-11-04T12:08:14;99572.44;;;12.11;70.37
13705;BME280;6924;52.122;9.952;2022-11-04T12:10:46;99568.06;;;12.14;71.26
13705;BME280;6924;52.122;9.952;2022-11-04T12:13:22;99565.00;;;12.19;71.94
13705;BME280;6924;52.122;9.952;2022-11-04T12:16:07;99566.06;;;12.14;70.93
13705;BME280;6924;52.122;9.952;2022-11-04T12:18:52;99567.41;;;12.29;71.31
13705;BME280;6924;52.122;9.952;2022-11-04T12:21:25;99570.84;;;12.47;71.98
13705;BME280;6924;52.122;9.952;2022-11-04T12:23:59;99576.44;;;12.56;72.08
13705;BME280;6924;52.122;9.952;2022-11-04T12:26:35;99573.25;;;12.57;71.00
13705;BME280;6924;52.122;9.952;2022-11-04T12:29:19;99586.31;;;12.37;69.24
13705;BME280;6924;52.122;9.952;2022-11-04T12:31:57;99583.13;;;12.39;70.97
13705;BME280;6924;52.122;9.952;2022-11-04T12:34:40;99573.59;;;12.44;70.83
13705;BME280;6924;52.122;9.952;2022-11-04T12:37:19;99589.13;;;12.25;69.17
13705;BME280;6924;52.122;9.952;2022-11-04T12:39:58;99587.88;;;12.35;71.67
13705;BME280;6924;52.122;9.952;2022-11-04T12:42:36;99591.28;;;12.28;70.17
13705;BME280;6924;52.122;9.952;2022-11-04T12:45:17;99591.88;;;12.34;70.97
13705;BME280;6924;52.122;9.952;2022-11-04T12:47:48;99596.84;;;12.49;72.29
13705;BME280;6924;52.122;9.952;2022-11-04T12:50:34;99598.16;;;12.39;70.89
13705;BME280;6924;52.122;9.952;2022-11-04T12:53:34;99606.81;;;12.55;71.74
13705;BME280;6924;52.122;9.952;2022-11-04T12:56:06;99607.75;;;12.59;71.90
13705;BME280;6924;52.122;9.952;2022-11-04T12:58:44;99613.34;;;12.68;71.79
13705;BME280;6924;52.122;9.952;2022-11-04T13:01:17;99607.75;;;12.72;72.10
13705;BME280;6924;52.122;9.952;2022-11-04T13:03:49;99610.50;;;12.80;72.83
13705;BME280;6924;52.122;9.952;2022-11-04T13:06:22;99608.38;;;12.77;72.16
13705;BME280;6924;52.122;9.952;2022-11-04T13:08:53;99617.38;;;12.79;70.93
13705;BME280;6924;52.122;9.952;2022-11-04T13:11:24;99617.81;;;12.69;70.50
13705;BME280;6924;52.122;9.952;2022-11-04T13:13:57;99617.13;;;12.72;70.76
13705;BME280;6924;52.122;9.952;2022-11-04T13:16:26;99625.38;;;12.65;69.81
13705;BME280;6924;52.122;9.952;2022-11-04T13:18:55;99618.38;;;12.50;69.41
13705;BME280;6924;52.122;9.952;2022-11-04T13:21:26;99609.78;;;12.59;70.24
13705;BME280;6924;52.122;9.952;2022-11-04T13:23:57;99622.03;;;12.51;69.95
13705;BME280;6924;52.122;9.952;2022-11-04T13:26:26;99626.91;;;12.50;70.32
13705;BME280;6924;52.122;9.952;2022-11-04T13:28:56;99623.00;;;12.55;70.31
13705;BME280;6924;52.122;9.952;2022-11-04T13:31:35;99614.59;;;12.58;70.44
13705;BME280;6924;52.122;9.952;2022-11-04T13:34:10;99629.16;;;12.57;70.03
13705;BME280;6924;52.122;9.952;2022-11-04T13:36:46;99625.53;;;12.35;70.40